createdAt,value
2023-03-16T00:01:07.714Z,0.50
2023-03-16T00:03:36.595Z,0.70
2023-03-16T00:06:05.288Z,0.50
2023-03-16T00:08:35.574Z,0.73
2023-03-16T00:11:03.878Z,1.13
2023-03-16T00:13:32.752Z,0.80
2023-03-16T00:16:02.953Z,0.90
2023-03-16T00:18:31.362Z,0.77
2023-03-16T00:21:02.255Z,0.60
2023-03-16T00:23:30.487Z,0.60
2023-03-16T00:26:03.041Z,0.63
2023-03-16T00:28:34.845Z,0.77
2023-03-16T00:31:03.279Z,1.10
2023-03-16T00:33:34.947Z,1.13
2023-03-16T00:36:04.109Z,1.10
2023-03-16T00:38:35.452Z,1.03
2023-03-16T00:41:06.577Z,0.67
2023-03-16T00:43:40.835Z,0.70
2023-03-16T00:46:09.908Z,0.97
2023-03-16T00:48:39.432Z,0.70
2023-03-16T00:51:13.092Z,0.70
2023-03-16T00:53:43.208Z,1.20
2023-03-16T00:56:13.885Z,0.97
2023-03-16T00:58:43.376Z,0.97
2023-03-16T01:01:13.720Z,0.93
2023-03-16T01:03:42.358Z,0.97
2023-03-16T01:06:12.904Z,0.80
2023-03-16T01:08:42.026Z,1.00
2023-03-16T01:11:13.508Z,0.67
2023-03-16T01:13:41.408Z,0.60
2023-03-16T01:16:10.509Z,0.70
2023-03-16T01:18:38.579Z,0.70
2023-03-16T01:21:08.970Z,0.87
2023-03-16T01:23:38.131Z,0.73
2023-03-16T01:26:06.577Z,0.60
2023-03-16T01:28:35.854Z,0.83
2023-03-16T01:31:07.074Z,0.80
2023-03-16T01:33:35.851Z,0.77
2023-03-16T01:36:06.319Z,1.30
2023-03-16T01:38:34.705Z,0.80
2023-03-16T01:41:03.818Z,0.60
2023-03-16T01:43:34.426Z,0.90
2023-03-16T01:46:19.634Z,0.87
2023-03-16T01:48:57.518Z,0.67
2023-03-16T01:51:29.588Z,0.70
2023-03-16T01:54:00.036Z,0.60
2023-03-16T01:56:34.661Z,0.60
2023-03-16T01:59:07.138Z,0.60
2023-03-16T02:01:37.076Z,0.87
2023-03-16T02:04:15.882Z,0.77
2023-03-16T02:06:44.709Z,0.43
2023-03-16T02:09:12.706Z,0.83
2023-03-16T02:11:41.645Z,0.80
2023-03-16T02:14:12.954Z,0.67
2023-03-16T02:16:43.025Z,0.70
2023-03-16T02:19:18.251Z,0.70
2023-03-16T02:21:54.863Z,0.80
2023-03-16T02:24:23.319Z,0.60
2023-03-16T02:26:56.109Z,0.80
2023-03-16T02:29:43.269Z,0.70
2023-03-16T02:32:12.945Z,0.70
2023-03-16T02:34:41.027Z,0.60
2023-03-16T02:37:10.435Z,0.67
2023-03-16T02:39:38.234Z,0.67
2023-03-16T02:42:06.849Z,0.60
2023-03-16T02:44:40.803Z,0.57
2023-03-16T02:47:17.518Z,0.60
2023-03-16T02:49:47.235Z,0.60
2023-03-16T02:52:16.135Z,0.60
2023-03-16T02:54:43.958Z,0.50
2023-03-16T02:57:12.113Z,0.57
2023-03-16T02:59:40.143Z,0.60
2023-03-16T03:02:11.194Z,0.73
2023-03-16T03:04:39.281Z,0.70
2023-03-16T03:07:07.286Z,0.67
2023-03-16T03:09:35.380Z,0.90
2023-03-16T03:12:03.336Z,0.83
2023-03-16T03:14:31.215Z,0.50
2023-03-16T03:16:59.017Z,0.50
2023-03-16T03:19:28.444Z,0.70
2023-03-16T03:21:56.988Z,0.70
2023-03-16T03:24:25.119Z,0.63
2023-03-16T03:26:53.336Z,0.70
2023-03-16T03:29:21.237Z,0.50
2023-03-16T03:31:49.111Z,0.60
2023-03-16T03:34:17.214Z,0.77
2023-03-16T03:36:46.465Z,0.60
2023-03-16T03:39:14.250Z,0.43
2023-03-16T03:41:42.190Z,0.40
2023-03-16T03:44:10.886Z,0.50
2023-03-16T03:46:38.901Z,0.70
2023-03-16T03:49:06.902Z,0.50
2023-03-16T03:51:35.277Z,0.80
2023-03-16T03:54:04.808Z,0.47
2023-03-16T03:56:32.800Z,0.70
2023-03-16T03:59:00.728Z,0.60
2023-03-16T04:01:28.547Z,0.60
2023-03-16T04:03:56.501Z,0.70
2023-03-16T04:06:24.399Z,0.53
2023-03-16T04:08:54.261Z,0.63
2023-03-16T04:11:23.564Z,0.50
2023-03-16T04:13:53.657Z,0.70
2023-03-16T04:16:22.285Z,0.40
2023-03-16T04:18:50.291Z,0.70
2023-03-16T04:21:18.868Z,0.60
2023-03-16T04:23:46.749Z,0.60
2023-03-16T04:26:14.979Z,0.70
2023-03-16T04:28:44.377Z,0.60
2023-03-16T04:31:12.284Z,0.53
2023-03-16T04:33:42.484Z,0.53
2023-03-16T04:36:10.679Z,0.60
2023-03-16T04:38:38.584Z,0.63
2023-03-16T04:41:07.848Z,0.60
2023-03-16T04:43:37.085Z,0.60
2023-03-16T04:46:07.960Z,0.90
2023-03-16T04:48:36.243Z,0.90
2023-03-16T04:51:06.433Z,0.77
2023-03-16T04:53:34.617Z,0.60
2023-03-16T04:56:04.265Z,0.57
2023-03-16T04:58:32.211Z,0.60
2023-03-16T05:01:00.161Z,0.70
2023-03-16T05:03:29.600Z,0.80
2023-03-16T05:05:57.587Z,0.77
2023-03-16T05:08:25.445Z,0.90
2023-03-16T05:10:57.277Z,0.90
2023-03-16T05:13:25.276Z,0.63
2023-03-16T05:15:53.953Z,0.80
2023-03-16T05:18:22.088Z,1.00
2023-03-16T05:20:53.561Z,1.00
2023-03-16T05:23:21.431Z,0.87
2023-03-16T05:25:49.875Z,0.77
2023-03-16T05:28:18.285Z,0.80
2023-03-16T05:30:46.328Z,1.00
2023-03-16T05:33:14.422Z,1.07
2023-03-16T05:35:43.130Z,0.90
2023-03-16T05:38:13.139Z,0.90
2023-03-16T05:40:41.260Z,1.17
2023-03-16T05:43:09.214Z,0.80
2023-03-16T05:45:37.033Z,0.90
2023-03-16T05:48:06.574Z,2.20
2023-03-16T05:50:34.621Z,0.50
2023-03-16T05:53:02.465Z,0.90
2023-03-16T05:55:31.963Z,0.80
2023-03-16T05:58:00.954Z,1.03
2023-03-16T06:00:29.951Z,1.20
2023-03-16T06:02:58.320Z,1.40
2023-03-16T06:05:28.595Z,1.00
2023-03-16T06:07:56.466Z,1.00
2023-03-16T06:10:26.699Z,0.93
2023-03-16T06:12:56.207Z,0.90
2023-03-16T06:15:26.568Z,0.90
2023-03-16T06:17:54.582Z,0.80
2023-03-16T06:20:22.669Z,0.90
2023-03-16T06:22:50.535Z,0.90
2023-03-16T06:25:18.860Z,1.17
2023-03-16T06:27:47.744Z,0.70
2023-03-16T06:30:17.696Z,1.13
2023-03-16T06:32:46.497Z,0.87
2023-03-16T06:35:14.920Z,1.50
2023-03-16T06:37:42.792Z,1.00
2023-03-16T06:40:12.200Z,1.00
2023-03-16T06:42:40.335Z,1.00
2023-03-16T06:45:09.370Z,1.20
2023-03-16T06:47:38.768Z,1.00
2023-03-16T06:50:08.988Z,1.07
2023-03-16T06:52:36.945Z,1.00
2023-03-16T06:55:05.451Z,0.90
2023-03-16T06:57:33.359Z,1.73
2023-03-16T07:00:03.407Z,2.07
2023-03-16T07:02:32.362Z,1.20
2023-03-16T07:05:01.828Z,1.20
2023-03-16T07:07:29.755Z,1.40
2023-03-16T07:09:57.645Z,1.37
2023-03-16T07:12:25.793Z,1.73
2023-03-16T07:14:54.273Z,1.43
2023-03-16T07:17:22.355Z,1.30
2023-03-16T07:19:50.320Z,1.57
2023-03-16T07:22:19.562Z,1.43
2023-03-16T07:24:47.504Z,1.37
2023-03-16T07:27:15.429Z,1.70
2023-03-16T07:29:43.269Z,1.50
2023-03-16T07:32:11.663Z,1.33
2023-03-16T07:34:39.700Z,1.57
2023-03-16T07:37:08.737Z,1.70
2023-03-16T07:39:38.363Z,1.38
2023-03-16T07:42:06.466Z,1.20
2023-03-16T07:44:34.345Z,1.45
2023-03-16T07:47:02.492Z,1.75
2023-03-16T07:49:30.483Z,1.60
2023-03-16T07:51:58.351Z,1.70
2023-03-16T07:54:26.301Z,1.92
2023-03-16T07:56:55.575Z,2.03
2023-03-16T07:59:23.461Z,2.17
2023-03-16T08:01:51.908Z,2.20
2023-03-16T08:04:19.901Z,2.17
2023-03-16T08:06:48.169Z,1.90
2023-03-16T08:09:16.659Z,2.00
2023-03-16T08:11:44.680Z,1.50
2023-03-16T08:14:13.928Z,2.00
2023-03-16T08:16:41.802Z,1.50
2023-03-16T08:19:11.524Z,1.50
2023-03-16T08:21:53.066Z,1.60
2023-03-16T08:24:27.378Z,2.05
2023-03-16T08:26:56.320Z,1.40
2023-03-16T08:29:25.903Z,2.00
2023-03-16T08:31:54.832Z,1.30
2023-03-16T08:34:22.730Z,1.77
2023-03-16T08:36:50.583Z,2.45
2023-03-16T08:39:18.763Z,1.45
2023-03-16T08:41:48.204Z,1.70
2023-03-16T08:44:16.064Z,1.40
2023-03-16T08:46:45.641Z,1.88
2023-03-16T08:49:14.466Z,1.90
2023-03-16T08:51:44.532Z,1.88
2023-03-16T08:54:13.918Z,1.70
2023-03-16T08:56:41.827Z,2.45
2023-03-16T08:59:19.898Z,2.28
2023-03-16T09:01:58.870Z,1.83
2023-03-16T09:04:28.472Z,2.25
2023-03-16T09:07:07.964Z,2.05
2023-03-16T09:09:37.285Z,1.63
2023-03-16T09:12:05.986Z,1.63
2023-03-16T09:14:34.443Z,1.45
2023-03-16T09:17:04.306Z,1.38
2023-03-16T09:19:50.156Z,1.30
2023-03-16T09:22:19.830Z,1.50
2023-03-16T09:24:48.478Z,1.50
2023-03-16T09:27:16.865Z,1.40
2023-03-16T09:29:45.823Z,2.10
2023-03-16T09:32:15.488Z,1.83
2023-03-16T09:34:43.366Z,1.73
2023-03-16T09:37:11.920Z,1.73
2023-03-16T09:39:39.983Z,1.42
2023-03-16T09:42:17.855Z,1.73
2023-03-16T09:45:00.474Z,1.63
2023-03-16T09:47:32.151Z,1.60
2023-03-16T09:50:03.314Z,1.92
2023-03-16T09:52:40.838Z,1.50
2023-03-16T09:55:17.693Z,1.50
2023-03-16T09:57:47.668Z,1.48
2023-03-16T10:00:19.467Z,1.83
2023-03-16T10:03:17.751Z,1.60
2023-03-16T10:05:48.200Z,1.55
2023-03-16T10:08:22.264Z,1.73
2023-03-16T10:11:10.881Z,2.13
2023-03-16T10:13:42.847Z,2.00
2023-03-16T10:16:15.698Z,1.80
2023-03-16T10:18:47.685Z,1.60
2023-03-16T10:21:18.354Z,1.73
2023-03-16T10:23:48.755Z,1.80
2023-03-16T10:26:21.561Z,1.55
2023-03-16T10:28:49.570Z,1.70
2023-03-16T10:31:21.322Z,1.90
2023-03-16T10:33:55.992Z,1.80
2023-03-16T10:36:30.636Z,1.60
2023-03-16T10:38:59.994Z,1.75
2023-03-16T10:41:31.313Z,1.90
2023-03-16T10:44:07.336Z,1.40
2023-03-16T10:46:40.043Z,1.83
2023-03-16T10:49:21.391Z,1.42
2023-03-16T10:51:49.376Z,2.00
2023-03-16T10:54:29.672Z,1.90
2023-03-16T10:56:57.967Z,1.92
2023-03-16T10:59:34.253Z,2.20
2023-03-16T11:02:05.434Z,1.77
2023-03-16T11:04:36.009Z,2.20
2023-03-16T11:07:03.965Z,1.88
2023-03-16T11:09:34.292Z,1.88
2023-03-16T11:12:13.425Z,1.70
2023-03-16T11:14:45.517Z,1.60
2023-03-16T11:17:18.128Z,2.50
2023-03-16T11:19:54.515Z,2.70
2023-03-16T11:22:25.370Z,2.00
2023-03-16T11:24:59.542Z,2.03
2023-03-16T11:27:34.911Z,2.17
2023-03-16T11:30:14.396Z,1.88
2023-03-16T11:32:48.093Z,2.55
2023-03-16T11:35:20.728Z,2.00
2023-03-16T11:37:58.991Z,2.00
2023-03-16T11:40:38.663Z,1.80
2023-03-16T11:43:19.373Z,2.00
2023-03-16T11:45:53.030Z,1.70
2023-03-16T11:48:33.304Z,1.63
2023-03-16T11:51:09.585Z,2.13
2023-03-16T11:53:47.991Z,2.03
2023-03-16T11:56:24.944Z,2.05
2023-03-16T11:59:02.772Z,2.28
2023-03-16T12:01:58.111Z,1.88
2023-03-16T12:04:46.654Z,1.60
2023-03-16T12:07:27.697Z,1.48
2023-03-16T12:10:18.771Z,1.63
2023-03-16T12:12:58.352Z,1.75
2023-03-16T12:15:39.339Z,2.40
2023-03-16T12:18:16.819Z,2.00
2023-03-16T12:20:54.455Z,2.15
2023-03-16T12:23:30.500Z,1.90
2023-03-16T12:26:01.056Z,1.30
2023-03-16T12:28:31.880Z,1.60
2023-03-16T12:31:10.468Z,1.75
2023-03-16T12:33:55.376Z,1.67
2023-03-16T12:36:58.830Z,1.60
2023-03-16T12:39:41.012Z,1.70
2023-03-16T12:42:27.262Z,1.70
2023-03-16T12:44:58.080Z,1.60
2023-03-16T12:47:33.775Z,2.22
2023-03-16T12:50:07.314Z,1.95
2023-03-16T12:52:43.484Z,1.73
2023-03-16T12:55:16.883Z,1.55
2023-03-16T12:57:46.848Z,1.52
2023-03-16T13:00:16.598Z,1.90
2023-03-16T13:02:46.979Z,1.50
2023-03-16T13:05:17.753Z,1.67
2023-03-16T13:07:50.640Z,1.75
2023-03-16T13:10:22.528Z,1.73
2023-03-16T13:12:51.633Z,1.77
2023-03-16T13:15:31.805Z,2.10
2023-03-16T13:18:22.438Z,1.42
2023-03-16T13:20:54.149Z,1.98
2023-03-16T13:23:25.627Z,2.13
2023-03-16T13:26:05.737Z,1.52
2023-03-16T13:28:36.684Z,1.33
2023-03-16T13:31:06.383Z,1.40
2023-03-16T13:33:36.895Z,1.33
2023-03-16T13:36:07.402Z,1.50
2023-03-16T13:38:36.244Z,1.70
2023-03-16T13:41:10.370Z,1.40
2023-03-16T13:43:43.850Z,1.65
2023-03-16T13:46:16.008Z,1.67
2023-03-16T13:48:44.367Z,1.52
2023-03-16T13:51:18.514Z,1.95
2023-03-16T13:53:46.636Z,1.73
2023-03-16T13:56:18.029Z,1.65
2023-03-16T13:58:48.904Z,1.38
2023-03-16T14:01:25.358Z,1.50
2023-03-16T14:03:54.902Z,1.85
2023-03-16T14:06:26.696Z,1.80
2023-03-16T14:08:58.879Z,1.30
2023-03-16T14:11:29.504Z,1.40
2023-03-16T14:13:59.732Z,1.30
2023-03-16T14:16:32.039Z,1.30
2023-03-16T14:19:05.434Z,1.25
2023-03-16T14:21:35.227Z,1.60
2023-03-16T14:24:04.564Z,1.63
2023-03-16T14:26:42.872Z,1.63
2023-03-16T14:29:20.082Z,1.35
2023-03-16T14:31:48.721Z,1.20
2023-03-16T14:34:29.948Z,1.45
2023-03-16T14:37:08.564Z,1.30
2023-03-16T14:39:37.457Z,1.52
2023-03-16T14:42:14.746Z,1.60
2023-03-16T14:44:43.842Z,1.35
2023-03-16T14:47:22.143Z,1.30
2023-03-16T14:49:50.174Z,1.30
2023-03-16T14:52:25.557Z,1.60
2023-03-16T14:54:55.184Z,1.30
2023-03-16T14:57:24.548Z,1.50
2023-03-16T14:59:52.549Z,1.17
2023-03-16T15:02:25.050Z,1.60
2023-03-16T15:04:53.041Z,1.30
2023-03-16T15:07:26.124Z,1.13
2023-03-16T15:09:55.588Z,1.45
2023-03-16T15:12:26.353Z,1.45
2023-03-16T15:15:12.061Z,1.23
2023-03-16T15:17:40.130Z,1.20
2023-03-16T15:20:08.897Z,1.30
2023-03-16T15:22:38.642Z,1.30
2023-03-16T15:25:21.458Z,1.15
2023-03-16T15:27:51.162Z,1.42
2023-03-16T15:30:22.708Z,0.90
2023-03-16T15:32:50.927Z,1.20
2023-03-16T15:35:19.117Z,0.95
2023-03-16T15:37:47.939Z,1.23
2023-03-16T15:40:21.669Z,1.20
2023-03-16T15:42:51.837Z,1.00
2023-03-16T15:45:22.233Z,1.00
2023-03-16T15:47:50.393Z,1.33
2023-03-16T15:50:21.857Z,1.20
2023-03-16T15:52:53.834Z,1.45
2023-03-16T15:55:24.368Z,1.25
2023-03-16T15:58:00.035Z,1.23
2023-03-16T16:00:31.930Z,1.08
2023-03-16T16:03:01.049Z,1.52
2023-03-16T16:05:30.768Z,1.15
2023-03-16T16:07:58.972Z,1.27
2023-03-16T16:10:28.983Z,1.63
2023-03-16T16:12:58.412Z,1.33
2023-03-16T16:15:29.751Z,1.10
2023-03-16T16:18:19.871Z,1.30
2023-03-16T16:20:46.498Z,1.60
2023-03-16T16:23:14.698Z,1.58
2023-03-16T16:25:43.498Z,1.45
2023-03-16T16:28:16.633Z,1.35
2023-03-16T16:30:45.400Z,1.20
2023-03-16T16:33:24.756Z,1.73
2023-03-16T16:35:53.738Z,1.43
2023-03-16T16:38:21.996Z,1.57
2023-03-16T16:40:51.243Z,1.47
2023-03-16T16:43:32.920Z,1.47
2023-03-16T16:46:02.003Z,1.80
2023-03-16T16:48:33.237Z,1.47
2023-03-16T16:51:02.431Z,1.40
2023-03-16T16:53:31.076Z,1.50
2023-03-16T16:55:58.997Z,1.50
2023-03-16T16:58:28.620Z,1.90
2023-03-16T17:00:59.015Z,1.87
2023-03-16T17:03:29.045Z,1.97
2023-03-16T17:05:58.917Z,1.77
2023-03-16T17:08:27.553Z,1.60
2023-03-16T17:10:55.800Z,1.80
2023-03-16T17:13:40.159Z,2.07
2023-03-16T17:16:09.724Z,2.37
2023-03-16T17:18:40.363Z,2.17
2023-03-16T17:21:10.553Z,2.00
2023-03-16T17:23:38.484Z,2.97
2023-03-16T17:26:16.128Z,2.00
2023-03-16T17:28:48.666Z,2.20
2023-03-16T17:31:21.263Z,1.90
2023-03-16T17:33:49.659Z,2.33
2023-03-16T17:36:18.298Z,2.10
2023-03-16T17:38:46.683Z,2.30
2023-03-16T17:41:23.347Z,2.33
2023-03-16T17:43:55.316Z,2.53
2023-03-16T17:46:25.445Z,2.70
2023-03-16T17:48:54.588Z,2.20
2023-03-16T17:51:25.621Z,2.67
2023-03-16T17:53:54.013Z,2.57
2023-03-16T17:56:25.403Z,2.27
2023-03-16T17:58:57.474Z,2.27
2023-03-16T18:01:29.218Z,1.87
2023-03-16T18:03:58.086Z,2.70
2023-03-16T18:06:30.213Z,2.30
2023-03-16T18:08:58.765Z,1.60
2023-03-16T18:11:34.324Z,2.40
2023-03-16T18:14:05.137Z,2.20
2023-03-16T18:16:33.478Z,2.87
2023-03-16T18:19:05.901Z,3.30
2023-03-16T18:21:36.349Z,2.07
2023-03-16T18:24:04.963Z,2.10
2023-03-16T18:26:32.862Z,2.87
2023-03-16T18:29:00.669Z,2.53
2023-03-16T18:31:31.019Z,2.20
2023-03-16T18:34:01.069Z,3.00
2023-03-16T18:36:32.148Z,2.10
2023-03-16T18:39:02.222Z,2.37
2023-03-16T18:41:33.536Z,2.60
2023-03-16T18:44:03.986Z,3.60
2023-03-16T18:46:35.482Z,3.53
2023-03-16T18:49:06.580Z,4.17
2023-03-16T18:51:34.778Z,3.10
2023-03-16T18:54:02.597Z,3.37
2023-03-16T18:56:30.649Z,2.90
2023-03-16T18:58:58.676Z,3.30
2023-03-16T19:01:29.936Z,3.00
2023-03-16T19:04:01.106Z,2.80
2023-03-16T19:06:31.906Z,3.03
2023-03-16T19:09:04.673Z,3.07
2023-03-16T19:11:33.378Z,3.03
2023-03-16T19:14:01.460Z,3.13
2023-03-16T19:16:29.439Z,3.43
2023-03-16T19:18:57.424Z,5.00
2023-03-16T19:21:27.186Z,5.97
2023-03-16T19:23:58.300Z,6.40
2023-03-16T19:26:26.619Z,6.30
2023-03-16T19:28:54.730Z,6.30
2023-03-16T19:31:25.056Z,6.80
2023-03-16T19:33:53.748Z,6.00
2023-03-16T19:36:24.781Z,6.87
2023-03-16T19:38:54.188Z,5.60
2023-03-16T19:41:26.897Z,5.20
2023-03-16T19:43:57.731Z,5.03
2023-03-16T19:46:27.242Z,4.90
2023-03-16T19:48:55.736Z,6.13
2023-03-16T19:51:25.446Z,4.50
2023-03-16T19:53:54.703Z,5.27
2023-03-16T19:56:26.662Z,5.63
2023-03-16T19:58:55.773Z,4.70
2023-03-16T20:01:31.028Z,4.10
2023-03-16T20:04:00.264Z,4.50
2023-03-16T20:06:28.282Z,5.20
2023-03-16T20:08:57.520Z,5.00
2023-03-16T20:11:29.455Z,4.83
2023-03-16T20:13:58.301Z,3.83
2023-03-16T20:16:29.162Z,4.57
2023-03-16T20:18:58.957Z,4.63
2023-03-16T20:21:27.516Z,3.87
2023-03-16T20:23:55.379Z,4.53
2023-03-16T20:26:27.126Z,4.03
2023-03-16T20:28:55.639Z,4.80
2023-03-16T20:31:25.256Z,4.50
2023-03-16T20:33:54.129Z,4.70
2023-03-16T20:36:24.240Z,4.87
2023-03-16T20:38:52.123Z,5.37
2023-03-16T20:41:26.471Z,4.13
2023-03-16T20:43:55.793Z,4.13
2023-03-16T20:46:26.511Z,4.67
2023-03-16T20:48:54.692Z,4.20
2023-03-16T20:51:23.345Z,4.83
2023-03-16T20:53:51.402Z,4.70
2023-03-16T20:56:21.013Z,3.93
2023-03-16T20:58:52.058Z,5.10
2023-03-16T21:01:21.738Z,4.60
2023-03-16T21:03:52.147Z,5.17
2023-03-16T21:06:23.835Z,4.30
2023-03-16T21:08:52.958Z,3.80
2023-03-16T21:11:24.639Z,3.97
2023-03-16T21:13:55.256Z,3.73
2023-03-16T21:16:23.804Z,3.93
2023-03-16T21:18:51.891Z,4.60
2023-03-16T21:21:20.843Z,4.40
2023-03-16T21:23:49.150Z,5.77
2023-03-16T21:26:19.437Z,4.20
2023-03-16T21:28:58.236Z,4.77
2023-03-16T21:31:27.221Z,4.77
2023-03-16T21:33:56.044Z,4.97
2023-03-16T21:36:26.307Z,4.67
2023-03-16T21:38:55.832Z,4.47
2023-03-16T21:41:24.274Z,4.53
2023-03-16T21:43:52.462Z,3.87
2023-03-16T21:46:23.444Z,4.03
2023-03-16T21:48:53.656Z,5.87
2023-03-16T21:51:25.011Z,5.03
2023-03-16T21:53:53.581Z,5.23
2023-03-16T21:56:25.462Z,5.37
2023-03-16T21:58:54.621Z,4.57
2023-03-16T22:01:25.900Z,4.13
2023-03-16T22:03:57.516Z,2.80
2023-03-16T22:06:28.957Z,3.57
2023-03-16T22:08:58.158Z,2.93
2023-03-16T22:11:28.339Z,3.67
2023-03-16T22:13:57.745Z,3.37
2023-03-16T22:16:29.967Z,3.07
2023-03-16T22:18:58.894Z,2.47
2023-03-16T22:21:30.375Z,3.00
2023-03-16T22:23:59.587Z,2.60
2023-03-16T22:26:29.711Z,2.83
2023-03-16T22:28:59.998Z,3.20
2023-03-16T22:31:34.018Z,2.87
2023-03-16T22:34:03.572Z,2.93
2023-03-16T22:36:33.893Z,3.47
2023-03-16T22:39:04.079Z,2.30
2023-03-16T22:41:32.317Z,2.63
2023-03-16T22:44:01.734Z,2.83
2023-03-16T22:46:31.439Z,2.53
2023-03-16T22:48:59.820Z,2.20
2023-03-16T22:51:30.946Z,2.50
2023-03-16T22:54:02.712Z,2.43
2023-03-16T22:56:32.074Z,2.53
2023-03-16T22:59:02.996Z,2.73
2023-03-16T23:01:36.188Z,2.27
2023-03-16T23:04:04.563Z,2.67
2023-03-16T23:06:33.496Z,2.30
2023-03-16T23:09:02.556Z,2.57
2023-03-16T23:11:33.082Z,2.67
2023-03-16T23:14:01.922Z,2.50
2023-03-16T23:16:35.388Z,2.40
2023-03-16T23:19:07.654Z,2.10
2023-03-16T23:21:41.288Z,2.00
2023-03-16T23:24:09.546Z,2.40
2023-03-16T23:26:37.931Z,1.80
2023-03-16T23:29:06.156Z,2.20
2023-03-16T23:31:35.355Z,2.20
2023-03-16T23:34:03.171Z,2.20
2023-03-16T23:36:31.173Z,2.10
2023-03-16T23:38:58.984Z,2.30
2023-03-16T23:41:26.924Z,2.87
2023-03-16T23:43:55.473Z,1.87
2023-03-16T23:46:25.970Z,2.40
2023-03-16T23:48:58.189Z,2.10
2023-03-16T23:51:29.299Z,2.30
2023-03-16T23:53:57.516Z,2.10
2023-03-16T23:56:27.122Z,2.23
2023-03-16T23:58:55.882Z,2.30
